RRR6102 LMML-LXGB
Flight info
| Callsign | RRR6102 |
|---|---|
| Flight time | 2h 34m |
| Altitude | 30000 |
| Route | GZO3C GZO L30 NEVNA/N0425F360 DCT OMENI UL874 NBA/N0421F380 UL874 DIMAO UZ888 BABOR UA31 BNA UZ444 DAHRA UA411 MOS UM744 CARBO DCT GOLFO DCT OBAKA M744 MGA/N0423F390 M985 PIMOS DCT |
| Aircraft | C17/H-SDE1E2FGHIJ5RTUWXY/LB1D1 |
Departure
| Time | 2026-05-04 08:31 |
|---|---|
| Airport | Malta International Airport (LMML) |
Arrival
| Time | 2026-05-04 11:06 |
|---|---|
| Airport | Gibraltar Airport (LXGB) |
| Time | Latitude | Longitude | Altitude | Speed | Heading |
|---|---|---|---|---|---|
| 2026-05-04 08:12 | 35.85506 | 14.47692 | 269 ft | 0 kts | 198° |
| 2026-05-04 08:24 | 35.85503 | 14.47690 | 269 ft | 2 kts | 198° |
| 2026-05-04 08:24 | 35.85490 | 14.47681 | 271 ft | 2 kts | 225° |
| 2026-05-04 08:25 | 35.85483 | 14.47662 | 269 ft | 3 kts | 256° |
| 2026-05-04 08:25 | 35.85486 | 14.47630 | 269 ft | 5 kts | 280° |
| 2026-05-04 08:25 | 35.85493 | 14.47581 | 269 ft | 6 kts | 278° |
| 2026-05-04 08:25 | 35.85488 | 14.47565 | 269 ft | 0 kts | 243° |
| 2026-05-04 08:27 | 35.85572 | 14.47511 | 268 ft | 11 kts | 360° |
| 2026-05-04 08:28 | 35.85640 | 14.47548 | 269 ft | 12 kts | 51° |
| 2026-05-04 08:28 | 35.85703 | 14.47650 | 269 ft | 18 kts | 53° |
| 2026-05-04 08:28 | 35.85786 | 14.47788 | 269 ft | 22 kts | 53° |
| 2026-05-04 08:28 | 35.85881 | 14.47948 | 269 ft | 23 kts | 54° |
| 2026-05-04 08:29 | 35.85980 | 14.48086 | 271 ft | 15 kts | 28° |
| 2026-05-04 08:29 | 35.85985 | 14.48116 | 271 ft | 3 kts | 160° |
| 2026-05-04 08:29 | 35.85966 | 14.48106 | 271 ft | 2 kts | 228° |
| 2026-05-04 08:31 | 35.82811 | 14.42511 | 6078 ft | 169 kts | 239° |
| 2026-05-04 08:33 | 35.77960 | 14.32378 | 11506 ft | 277 kts | 245° |
| 2026-05-04 08:33 | 35.77106 | 14.30235 | 11975 ft | 277 kts | 253° |
| 2026-05-04 08:35 | 35.87172 | 14.22825 | 16494 ft | 286 kts | 350° |
| 2026-05-04 08:35 | 35.89162 | 14.22536 | 17199 ft | 290 kts | 350° |
| 2026-05-04 08:35 | 35.91182 | 14.22257 | 17934 ft | 292 kts | 350° |
| 2026-05-04 08:35 | 35.93205 | 14.21979 | 18657 ft | 295 kts | 350° |
| 2026-05-04 08:37 | 36.03571 | 14.15335 | 22872 ft | 331 kts | 287° |
| 2026-05-04 08:37 | 36.03863 | 14.12396 | 23702 ft | 359 kts | 274° |
| 2026-05-04 08:37 | 36.03896 | 14.09228 | 24412 ft | 375 kts | 273° |
| 2026-05-04 08:38 | 36.03894 | 14.05981 | 25069 ft | 382 kts | 273° |
| 2026-05-04 08:38 | 36.03922 | 14.02664 | 25742 ft | 389 kts | 274° |
| 2026-05-04 08:38 | 36.03971 | 13.99311 | 26424 ft | 391 kts | 274° |
| 2026-05-04 08:40 | 36.04174 | 13.78163 | 30220 ft | 423 kts | 274° |
| 2026-05-04 08:40 | 36.04202 | 13.74501 | 30218 ft | 431 kts | 274° |
| 2026-05-04 08:41 | 36.04257 | 13.67174 | 30202 ft | 422 kts | 274° |
| 2026-05-04 08:41 | 36.04315 | 13.59885 | 30220 ft | 426 kts | 274° |
| 2026-05-04 08:42 | 36.04362 | 13.52590 | 30203 ft | 423 kts | 274° |
| 2026-05-04 08:42 | 36.04408 | 13.45306 | 30204 ft | 423 kts | 274° |
| 2026-05-04 08:43 | 36.04449 | 13.38105 | 30204 ft | 423 kts | 274° |
| 2026-05-04 08:43 | 36.04484 | 13.30829 | 30198 ft | 422 kts | 274° |
| 2026-05-04 08:44 | 36.04517 | 13.23577 | 30198 ft | 423 kts | 274° |
| 2026-05-04 08:46 | 36.04612 | 12.94536 | 30187 ft | 422 kts | 274° |
| 2026-05-04 08:46 | 36.04625 | 12.87280 | 30192 ft | 421 kts | 274° |
| 2026-05-04 08:47 | 36.04634 | 12.80050 | 30191 ft | 422 kts | 274° |
| 2026-05-04 08:47 | 36.04639 | 12.72845 | 30184 ft | 422 kts | 273° |
| 2026-05-04 08:48 | 36.04638 | 12.65568 | 30183 ft | 423 kts | 273° |
| 2026-05-04 08:48 | 36.04635 | 12.58311 | 30178 ft | 422 kts | 273° |
| 2026-05-04 08:49 | 36.04626 | 12.51040 | 30181 ft | 423 kts | 273° |
| 2026-05-04 08:50 | 36.04561 | 12.25572 | 30168 ft | 424 kts | 272° |
| 2026-05-04 08:51 | 36.04533 | 12.18260 | 30162 ft | 426 kts | 272° |
| 2026-05-04 08:51 | 36.04499 | 12.10956 | 30159 ft | 424 kts | 272° |
| 2026-05-04 08:52 | 36.04463 | 12.03647 | 30155 ft | 426 kts | 272° |
| 2026-05-04 08:52 | 36.04420 | 11.96316 | 30159 ft | 427 kts | 271° |
| 2026-05-04 08:54 | 36.04208 | 11.67029 | 30143 ft | 427 kts | 271° |
| 2026-05-04 08:55 | 36.04144 | 11.59672 | 30149 ft | 428 kts | 271° |
| 2026-05-04 08:55 | 36.04075 | 11.52329 | 30148 ft | 426 kts | 271° |
| 2026-05-04 09:01 | 36.06451 | 10.76502 | 30126 ft | 428 kts | 274° |
| 2026-05-04 09:01 | 36.06672 | 10.69156 | 30124 ft | 428 kts | 274° |
| 2026-05-04 09:02 | 36.06882 | 10.61795 | 30124 ft | 428 kts | 274° |
| 2026-05-04 09:02 | 36.07090 | 10.54456 | 30126 ft | 427 kts | 273° |
| 2026-05-04 09:03 | 36.07294 | 10.47087 | 30133 ft | 429 kts | 273° |
| 2026-05-04 09:03 | 36.08333 | 10.39956 | 30132 ft | 426 kts | 288° |
| 2026-05-04 09:04 | 36.10230 | 10.32936 | 30138 ft | 427 kts | 288° |
| 2026-05-04 09:04 | 36.12084 | 10.25969 | 30122 ft | 426 kts | 288° |
| 2026-05-04 09:05 | 36.13942 | 10.18990 | 30111 ft | 427 kts | 287° |
| 2026-05-04 09:05 | 36.15534 | 10.11997 | 30111 ft | 425 kts | 279° |
| 2026-05-04 09:06 | 36.16411 | 10.04717 | 30114 ft | 427 kts | 279° |
| 2026-05-04 09:08 | 36.19957 | 9.75677 | 30109 ft | 426 kts | 278° |
| 2026-05-04 09:08 | 36.20829 | 9.68424 | 30104 ft | 426 kts | 278° |
| 2026-05-04 09:09 | 36.21693 | 9.61206 | 30101 ft | 426 kts | 278° |
| 2026-05-04 09:09 | 36.22557 | 9.53948 | 30098 ft | 425 kts | 278° |
| 2026-05-04 09:10 | 36.23418 | 9.46685 | 30103 ft | 427 kts | 278° |
| 2026-05-04 09:10 | 36.24273 | 9.39412 | 30103 ft | 426 kts | 278° |
| 2026-05-04 09:11 | 36.25130 | 9.32148 | 30101 ft | 426 kts | 279° |
| 2026-05-04 09:11 | 36.26316 | 9.24951 | 30101 ft | 426 kts | 281° |
| 2026-05-04 09:12 | 36.27490 | 9.17739 | 30105 ft | 427 kts | 281° |
| 2026-05-04 09:14 | 36.32180 | 8.88945 | 30098 ft | 427 kts | 280° |
| 2026-05-04 09:14 | 36.33343 | 8.81718 | 30097 ft | 427 kts | 280° |
| 2026-05-04 09:15 | 36.34502 | 8.74501 | 30098 ft | 427 kts | 280° |
| 2026-05-04 09:15 | 36.35657 | 8.67276 | 30096 ft | 425 kts | 280° |
| 2026-05-04 09:17 | 36.40586 | 8.34766 | 30101 ft | 424 kts | 272° |
| 2026-05-04 09:18 | 36.40831 | 8.27442 | 30105 ft | 428 kts | 272° |
| 2026-05-04 09:18 | 36.41114 | 8.20103 | 30105 ft | 424 kts | 272° |
| 2026-05-04 09:19 | 36.41373 | 8.12753 | 30101 ft | 427 kts | 272° |
| 2026-05-04 09:19 | 36.41635 | 8.05413 | 30098 ft | 425 kts | 272° |
| 2026-05-04 09:20 | 36.41890 | 7.98063 | 30103 ft | 426 kts | 272° |
| 2026-05-04 09:20 | 36.42142 | 7.90700 | 30106 ft | 428 kts | 272° |
| 2026-05-04 09:21 | 36.42387 | 7.83385 | 30100 ft | 425 kts | 272° |
| 2026-05-04 09:21 | 36.42630 | 7.76020 | 30100 ft | 428 kts | 272° |
| 2026-05-04 09:22 | 36.42869 | 7.68635 | 30096 ft | 426 kts | 272° |
| 2026-05-04 09:22 | 36.43102 | 7.61285 | 30097 ft | 426 kts | 272° |
| 2026-05-04 09:23 | 36.43332 | 7.53907 | 30094 ft | 429 kts | 271° |
| 2026-05-04 09:23 | 36.43556 | 7.46530 | 30092 ft | 426 kts | 271° |
| 2026-05-04 09:25 | 36.44410 | 7.17040 | 30096 ft | 426 kts | 271° |
| 2026-05-04 09:26 | 36.44612 | 7.09661 | 30095 ft | 429 kts | 271° |
| 2026-05-04 09:26 | 36.44808 | 7.02272 | 30093 ft | 427 kts | 271° |
| 2026-05-04 09:27 | 36.45004 | 6.94893 | 30114 ft | 428 kts | 271° |
| 2026-05-04 09:27 | 36.45196 | 6.87483 | 30121 ft | 428 kts | 271° |
| 2026-05-04 09:28 | 36.45381 | 6.80121 | 30138 ft | 428 kts | 271° |
| 2026-05-04 09:28 | 36.45558 | 6.72715 | 30131 ft | 427 kts | 271° |
| 2026-05-04 09:29 | 36.45739 | 6.65335 | 30153 ft | 429 kts | 271° |
| 2026-05-04 09:29 | 36.45900 | 6.57960 | 30132 ft | 430 kts | 271° |
| 2026-05-04 09:30 | 36.46057 | 6.50562 | 30105 ft | 430 kts | 271° |
| 2026-05-04 09:30 | 36.46237 | 6.43161 | 30102 ft | 427 kts | 271° |
| 2026-05-04 09:31 | 36.46382 | 6.35804 | 30103 ft | 431 kts | 270° |
| 2026-05-04 09:31 | 36.46539 | 6.28346 | 30103 ft | 429 kts | 271° |
| 2026-05-04 09:32 | 36.46686 | 6.20981 | 30102 ft | 428 kts | 271° |
| 2026-05-04 09:34 | 36.47237 | 5.91232 | 30098 ft | 433 kts | 270° |
| 2026-05-04 09:34 | 36.47360 | 5.83777 | 30092 ft | 432 kts | 270° |
| 2026-05-04 09:35 | 36.47480 | 5.76356 | 30105 ft | 430 kts | 270° |
| 2026-05-04 09:35 | 36.47595 | 5.68923 | 30098 ft | 432 kts | 270° |
| 2026-05-04 09:37 | 36.48004 | 5.39144 | 30097 ft | 431 kts | 270° |
| 2026-05-04 09:38 | 36.48102 | 5.31707 | 30117 ft | 431 kts | 270° |
| 2026-05-04 09:38 | 36.48187 | 5.24300 | 30100 ft | 429 kts | 270° |
| 2026-05-04 09:39 | 36.48269 | 5.16852 | 30098 ft | 429 kts | 270° |
| 2026-05-04 09:39 | 36.48347 | 5.09427 | 30085 ft | 432 kts | 270° |
| 2026-05-04 09:40 | 36.48421 | 5.02039 | 30081 ft | 428 kts | 270° |
| 2026-05-04 09:40 | 36.49096 | 4.94657 | 30095 ft | 432 kts | 277° |
| 2026-05-04 09:42 | 36.52723 | 4.65225 | 30079 ft | 428 kts | 277° |
| 2026-05-04 09:43 | 36.53614 | 4.57857 | 30081 ft | 431 kts | 277° |
| 2026-05-04 09:43 | 36.54502 | 4.50503 | 30073 ft | 431 kts | 276° |
| 2026-05-04 09:44 | 36.55381 | 4.43159 | 30069 ft | 431 kts | 276° |
| 2026-05-04 09:46 | 36.58876 | 4.13680 | 30061 ft | 429 kts | 276° |
| 2026-05-04 09:46 | 36.59726 | 4.06332 | 30048 ft | 430 kts | 276° |
| 2026-05-04 09:47 | 36.60585 | 3.98968 | 30056 ft | 430 kts | 276° |
| 2026-05-04 09:49 | 36.63817 | 3.70790 | 30049 ft | 428 kts | 276° |
| 2026-05-04 09:51 | 36.63331 | 3.45162 | 30069 ft | 424 kts | 260° |
| 2026-05-04 09:51 | 36.62403 | 3.37935 | 30075 ft | 426 kts | 260° |
| 2026-05-04 09:52 | 36.61456 | 3.30649 | 30080 ft | 426 kts | 260° |
| 2026-05-04 09:52 | 36.60510 | 3.23384 | 30083 ft | 424 kts | 260° |
| 2026-05-04 09:53 | 36.59548 | 3.16111 | 30084 ft | 426 kts | 260° |
| 2026-05-04 09:53 | 36.58602 | 3.08830 | 30076 ft | 424 kts | 260° |
| 2026-05-04 09:54 | 36.57616 | 3.01597 | 30073 ft | 423 kts | 259° |
| 2026-05-04 09:54 | 36.56673 | 2.94388 | 30062 ft | 422 kts | 260° |
| 2026-05-04 09:55 | 36.55686 | 2.87154 | 30049 ft | 421 kts | 260° |
| 2026-05-04 09:55 | 36.54746 | 2.79915 | 30050 ft | 426 kts | 259° |
| 2026-05-04 09:56 | 36.53762 | 2.72746 | 30052 ft | 423 kts | 259° |
| 2026-05-04 09:56 | 36.52795 | 2.65524 | 30061 ft | 423 kts | 259° |
| 2026-05-04 09:57 | 36.51817 | 2.58366 | 30054 ft | 421 kts | 259° |
| 2026-05-04 09:57 | 36.50832 | 2.51185 | 30056 ft | 419 kts | 259° |
| 2026-05-04 09:58 | 36.49856 | 2.44012 | 30056 ft | 422 kts | 259° |
| 2026-05-04 09:58 | 36.48871 | 2.36863 | 30055 ft | 419 kts | 259° |
| 2026-05-04 10:00 | 36.44867 | 2.08224 | 30062 ft | 423 kts | 259° |
| 2026-05-04 10:04 | 36.37736 | 1.58337 | 30063 ft | 417 kts | 258° |
| 2026-05-04 10:04 | 36.36697 | 1.51241 | 30070 ft | 417 kts | 256° |
| 2026-05-04 10:05 | 36.34688 | 1.44529 | 30068 ft | 416 kts | 247° |
| 2026-05-04 10:05 | 36.32479 | 1.37929 | 30064 ft | 416 kts | 248° |
| 2026-05-04 10:06 | 36.30254 | 1.31319 | 30077 ft | 418 kts | 248° |
| 2026-05-04 10:06 | 36.28021 | 1.24691 | 30072 ft | 415 kts | 247° |
| 2026-05-04 10:08 | 36.20182 | 1.01550 | 30061 ft | 415 kts | 247° |
| 2026-05-04 10:08 | 36.17942 | 0.94953 | 30060 ft | 417 kts | 247° |
| 2026-05-04 10:09 | 36.15690 | 0.88367 | 30040 ft | 414 kts | 247° |
| 2026-05-04 10:09 | 36.13453 | 0.81809 | 30043 ft | 417 kts | 247° |
| 2026-05-04 10:10 | 36.11196 | 0.75226 | 30065 ft | 414 kts | 247° |
| 2026-05-04 10:10 | 36.08950 | 0.68680 | 30058 ft | 413 kts | 247° |
| 2026-05-04 10:11 | 36.06697 | 0.62136 | 30067 ft | 415 kts | 246° |
| 2026-05-04 10:11 | 36.04441 | 0.55588 | 30055 ft | 412 kts | 247° |
| 2026-05-04 10:12 | 36.02188 | 0.49061 | 30053 ft | 414 kts | 246° |
| 2026-05-04 10:12 | 35.99919 | 0.42532 | 30053 ft | 415 kts | 247° |
| 2026-05-04 10:13 | 35.97655 | 0.35983 | 30062 ft | 412 kts | 246° |
| 2026-05-04 10:13 | 35.95394 | 0.29494 | 30057 ft | 413 kts | 246° |
| 2026-05-04 10:14 | 35.93140 | 0.23015 | 30060 ft | 412 kts | 246° |
| 2026-05-04 10:16 | 35.93185 | -0.01195 | 30077 ft | 425 kts | 281° |
| 2026-05-04 10:16 | 35.93965 | -0.04703 | 30064 ft | 422 kts | 281° |
| 2026-05-04 10:16 | 35.95512 | -0.11684 | 30060 ft | 424 kts | 281° |
| 2026-05-04 10:17 | 35.97070 | -0.18692 | 30068 ft | 421 kts | 281° |
| 2026-05-04 10:19 | 36.03227 | -0.46684 | 30064 ft | 423 kts | 280° |
| 2026-05-04 10:19 | 36.04759 | -0.53684 | 30060 ft | 423 kts | 280° |
| 2026-05-04 10:20 | 36.06298 | -0.60762 | 30062 ft | 423 kts | 280° |
| 2026-05-04 10:20 | 36.07809 | -0.67720 | 30056 ft | 423 kts | 280° |
| 2026-05-04 10:21 | 36.09333 | -0.74761 | 30058 ft | 422 kts | 280° |
| 2026-05-04 10:21 | 36.10845 | -0.81768 | 30062 ft | 421 kts | 280° |
| 2026-05-04 10:22 | 36.13102 | -0.92272 | 30060 ft | 422 kts | 280° |
| 2026-05-04 10:23 | 36.14603 | -0.99279 | 30059 ft | 420 kts | 280° |
| 2026-05-04 10:25 | 36.20537 | -1.27216 | 30055 ft | 420 kts | 280° |
| 2026-05-04 10:25 | 36.22011 | -1.34212 | 30054 ft | 417 kts | 280° |
| 2026-05-04 10:26 | 36.23477 | -1.41192 | 30054 ft | 420 kts | 279° |
| 2026-05-04 10:26 | 36.24943 | -1.48186 | 30050 ft | 419 kts | 279° |
| 2026-05-04 10:27 | 36.26402 | -1.55173 | 30051 ft | 422 kts | 279° |
| 2026-05-04 10:27 | 36.27855 | -1.62153 | 30054 ft | 420 kts | 279° |
| 2026-05-04 10:28 | 36.29309 | -1.69157 | 30051 ft | 420 kts | 279° |
| 2026-05-04 10:28 | 36.30757 | -1.76141 | 30049 ft | 417 kts | 279° |
| 2026-05-04 10:29 | 36.32199 | -1.83143 | 30051 ft | 419 kts | 279° |
| 2026-05-04 10:29 | 36.33630 | -1.90089 | 30045 ft | 419 kts | 279° |
| 2026-05-04 10:30 | 36.35061 | -1.97080 | 30043 ft | 416 kts | 279° |
| 2026-05-04 10:30 | 36.36489 | -2.04052 | 30032 ft | 418 kts | 279° |
| 2026-05-04 10:31 | 36.37907 | -2.11049 | 30047 ft | 417 kts | 279° |
| 2026-05-04 10:32 | 36.42854 | -2.35499 | 30035 ft | 414 kts | 279° |
| 2026-05-04 10:33 | 36.44249 | -2.42465 | 30035 ft | 417 kts | 279° |
| 2026-05-04 10:33 | 36.45646 | -2.49444 | 30030 ft | 414 kts | 279° |
| 2026-05-04 10:34 | 36.47029 | -2.56385 | 30037 ft | 417 kts | 279° |
| 2026-05-04 10:34 | 36.48417 | -2.63362 | 30035 ft | 415 kts | 279° |
| 2026-05-04 10:35 | 36.49797 | -2.70329 | 30033 ft | 413 kts | 279° |
| 2026-05-04 10:35 | 36.51157 | -2.77213 | 30039 ft | 413 kts | 279° |
| 2026-05-04 10:36 | 36.52290 | -2.82980 | 30040 ft | 411 kts | 279° |
| 2026-05-04 10:36 | 36.53645 | -2.89885 | 30038 ft | 413 kts | 279° |
| 2026-05-04 10:37 | 36.55222 | -2.97935 | 30028 ft | 411 kts | 279° |
| 2026-05-04 10:37 | 36.56348 | -3.03731 | 30030 ft | 412 kts | 279° |
| 2026-05-04 10:39 | 36.60983 | -3.27682 | 30023 ft | 408 kts | 278° |
| 2026-05-04 10:40 | 36.62304 | -3.34547 | 30032 ft | 406 kts | 278° |
| 2026-05-04 10:40 | 36.63614 | -3.41402 | 30023 ft | 408 kts | 278° |
| 2026-05-04 10:41 | 36.64921 | -3.48230 | 30016 ft | 400 kts | 278° |
| 2026-05-04 10:41 | 36.66191 | -3.54969 | 30017 ft | 404 kts | 278° |
| 2026-05-04 10:42 | 36.67481 | -3.61761 | 30015 ft | 402 kts | 278° |
| 2026-05-04 10:42 | 36.68761 | -3.68573 | 30018 ft | 404 kts | 278° |
| 2026-05-04 10:43 | 36.70040 | -3.75382 | 29533 ft | 403 kts | 278° |
| 2026-05-04 10:44 | 36.74365 | -3.98534 | 26759 ft | 391 kts | 278° |
| 2026-05-04 10:45 | 36.74971 | -4.01798 | 26388 ft | 392 kts | 278° |
| 2026-05-04 10:45 | 36.75583 | -4.05136 | 25501 ft | 398 kts | 278° |
| 2026-05-04 10:45 | 36.76199 | -4.08472 | 24400 ft | 392 kts | 278° |
| 2026-05-04 10:45 | 36.76813 | -4.11763 | 23251 ft | 386 kts | 278° |
| 2026-05-04 10:46 | 36.77408 | -4.14992 | 22021 ft | 379 kts | 278° |
| 2026-05-04 10:46 | 36.77989 | -4.18166 | 20839 ft | 373 kts | 278° |
| 2026-05-04 10:46 | 36.78563 | -4.21293 | 19683 ft | 367 kts | 278° |
| 2026-05-04 10:46 | 36.79128 | -4.24377 | 18579 ft | 362 kts | 279° |
| 2026-05-04 10:47 | 36.79683 | -4.27421 | 17369 ft | 356 kts | 279° |
| 2026-05-04 10:47 | 36.80091 | -4.30460 | 15829 ft | 355 kts | 270° |
| 2026-05-04 10:47 | 36.79909 | -4.33520 | 14421 ft | 354 kts | 257° |
| 2026-05-04 10:47 | 36.79150 | -4.36430 | 12945 ft | 353 kts | 245° |
| 2026-05-04 10:49 | 36.67167 | -4.48300 | 6731 ft | 305 kts | 214° |
| 2026-05-04 10:49 | 36.65438 | -4.49659 | 6258 ft | 291 kts | 216° |
| 2026-05-04 10:50 | 36.63774 | -4.50975 | 5831 ft | 275 kts | 216° |
| 2026-05-04 10:51 | 36.53302 | -4.59282 | 4606 ft | 252 kts | 216° |
| 2026-05-04 10:52 | 36.51822 | -4.60452 | 4477 ft | 252 kts | 215° |
| 2026-05-04 10:52 | 36.50332 | -4.61627 | 4343 ft | 254 kts | 214° |
| 2026-05-04 10:52 | 36.48841 | -4.62795 | 4230 ft | 252 kts | 216° |
| 2026-05-04 10:54 | 36.38570 | -4.70888 | 3356 ft | 242 kts | 216° |
| 2026-05-04 10:54 | 36.37148 | -4.72007 | 3237 ft | 242 kts | 217° |
| 2026-05-04 10:56 | 36.27235 | -4.79797 | 2360 ft | 237 kts | 216° |
| 2026-05-04 10:56 | 36.25840 | -4.80896 | 2230 ft | 240 kts | 216° |
| 2026-05-04 10:56 | 36.24457 | -4.81978 | 2119 ft | 237 kts | 216° |
| 2026-05-04 10:57 | 36.23058 | -4.83069 | 2098 ft | 240 kts | 216° |
| 2026-05-04 10:57 | 36.21671 | -4.84148 | 2076 ft | 231 kts | 217° |
| 2026-05-04 10:57 | 36.20284 | -4.85238 | 2068 ft | 243 kts | 217° |
| 2026-05-04 10:57 | 36.18879 | -4.86338 | 2062 ft | 234 kts | 216° |
| 2026-05-04 10:58 | 36.17492 | -4.87417 | 2065 ft | 239 kts | 216° |
| 2026-05-04 10:58 | 36.16141 | -4.88600 | 2057 ft | 237 kts | 227° |
| 2026-05-04 10:58 | 36.15280 | -4.90294 | 2059 ft | 231 kts | 252° |
| 2026-05-04 10:58 | 36.15062 | -4.92225 | 2061 ft | 226 kts | 270° |
| 2026-05-04 10:59 | 36.15100 | -4.94189 | 2075 ft | 231 kts | 271° |
| 2026-05-04 10:59 | 36.15127 | -4.96168 | 2064 ft | 228 kts | 271° |
| 2026-05-04 10:59 | 36.15155 | -4.98145 | 2062 ft | 228 kts | 272° |
| 2026-05-04 10:59 | 36.15191 | -5.00012 | 2044 ft | 206 kts | 271° |
| 2026-05-04 11:00 | 36.15217 | -5.01737 | 2056 ft | 200 kts | 271° |
| 2026-05-04 11:01 | 36.15372 | -5.13761 | 2080 ft | 202 kts | 271° |
| 2026-05-04 11:02 | 36.15395 | -5.15478 | 2079 ft | 197 kts | 270° |
| 2026-05-04 11:02 | 36.15417 | -5.17169 | 2097 ft | 196 kts | 270° |
| 2026-05-04 11:05 | 36.15122 | -5.34769 | 17 ft | 95 kts | 268° |
| 2026-05-04 11:06 | 36.15103 | -5.35285 | 17 ft | 41 kts | 266° |
| 2026-05-04 11:06 | 36.15093 | -5.35593 | 14 ft | 27 kts | 266° |
| 2026-05-04 11:06 | 36.15088 | -5.35675 | 15 ft | 4 kts | 345° |
| 2026-05-04 11:06 | 36.15100 | -5.35610 | 16 ft | 14 kts | 88° |
| 2026-05-04 11:08 | 36.14964 | -5.34725 | 17 ft | 3 kts | 214° |
| 2026-05-04 11:10 | 36.14971 | -5.34769 | 15 ft | 0 kts | 319° |